Time;durP1;ratioP1;P1;durP2;ratioP2;P2;SDS_P1;SDS_P2;PMS_P1;PMS_P2;Temp;Humidity;BMP_temperature;BMP_pressure;BME280_temperature;BME280_humidity;BME280_pressure;Samples;Min_cycle;Max_cycle;Signal;HPM_P1;HPM_P2
2022/12/28 00:00:44;;;;;;;13.00;4.17;;;;;;;2.37;83.01;101426.02;123539;1099;104255;-78
2022/12/28 00:03:32;;;;;;;13.93;4.40;;;;;;;2.37;83.07;101444.16;123504;1098;104736;-78
2022/12/28 00:06:04;;;;;;;10.87;3.87;;;;;;;2.37;83.14;101441.56;123514;1098;104242;-78
2022/12/28 00:08:36;;;;;;;10.30;3.90;;;;;;;2.36;83.51;101447.52;123534;1099;104308;-78
2022/12/28 00:11:09;;;;;;;13.10;4.20;;;;;;;2.36;83.56;101444.02;123452;1099;104357;-78
2022/12/28 00:13:40;;;;;;;19.00;3.83;;;;;;;2.34;83.00;101447.38;123571;1099;104313;-78
2022/12/28 00:16:17;;;;;;;15.20;4.67;;;;;;;2.34;83.11;101446.48;123164;1099;104252;-78
2022/12/28 00:18:48;;;;;;;13.55;4.35;;;;;;;2.33;83.70;101455.92;123441;1099;104248;-79
2022/12/28 00:21:19;;;;;;;16.13;4.20;;;;;;;2.33;82.85;101449.84;123483;1099;104297;-77
2022/12/28 00:23:53;;;;;;;18.50;4.57;;;;;;;2.32;82.74;101454.13;123205;1099;104323;-79
2022/12/28 00:26:26;;;;;;;14.30;4.30;;;;;;;2.30;83.49;101454.77;123431;1099;104650;-78
2022/12/28 00:28:57;;;;;;;14.87;4.13;;;;;;;2.28;83.02;101461.52;123495;1099;104281;-78
2022/12/28 00:31:29;;;;;;;16.93;4.43;;;;;;;2.28;83.05;101467.59;123258;1099;104387;-78
2022/12/28 00:34:00;;;;;;;15.70;4.30;;;;;;;2.28;84.05;101469.28;123486;1098;104357;-79
2022/12/28 00:36:32;;;;;;;11.80;4.40;;;;;;;2.27;83.70;101459.69;123394;1098;104345;-79
2022/12/28 00:39:04;;;;;;;16.27;4.13;;;;;;;2.27;83.30;101470.94;123497;1099;104703;-79
2022/12/28 00:41:38;;;;;;;17.00;4.90;;;;;;;2.27;83.51;101467.45;123483;1098;104171;-79
2022/12/28 00:44:09;;;;;;;14.13;4.37;;;;;;;2.27;83.09;101468.35;123451;1099;104274;-78
2022/12/28 00:46:40;;;;;;;16.57;4.60;;;;;;;2.28;83.61;101471.88;123245;1099;104368;-78
2022/12/28 00:49:11;;;;;;;16.57;4.67;;;;;;;2.27;83.93;101470.94;123447;1098;104357;-78
2022/12/28 00:51:43;;;;;;;12.53;4.43;;;;;;;2.28;83.56;101471.88;123377;1099;104306;-79
2022/12/28 00:54:14;;;;;;;15.20;4.70;;;;;;;2.26;83.31;101463.97;123171;1099;104274;-78
2022/12/28 00:56:46;;;;;;;12.90;4.80;;;;;;;2.26;83.26;101463.97;123386;1099;104315;-78
2022/12/28 00:59:19;;;;;;;17.12;4.90;;;;;;;2.27;83.78;101464.87;123434;1099;104727;-79
2022/12/28 01:01:50;;;;;;;12.63;4.80;;;;;;;2.28;84.36;101465.00;123423;1099;104245;-79
2022/12/28 01:04:22;;;;;;;17.20;4.30;;;;;;;2.29;83.57;101465.89;123453;1099;104305;-79
2022/12/28 01:06:53;;;;;;;13.67;4.80;;;;;;;2.32;83.38;101463.56;123429;1099;104239;-79
2022/12/28 01:09:24;;;;;;;12.77;4.17;;;;;;;2.32;83.43;101468.74;123424;1099;104254;-79
2022/12/28 01:11:56;;;;;;;18.40;5.50;;;;;;;2.33;82.99;101458.52;123502;1099;104269;-78
2022/12/28 01:14:27;;;;;;;12.23;4.50;;;;;;;2.36;83.51;101468.23;123438;1099;104274;-78
2022/12/28 01:16:58;;;;;;;14.87;4.37;;;;;;;2.38;83.60;101461.48;123484;1099;104258;-78
2022/12/28 01:19:29;;;;;;;15.13;4.77;;;;;;;2.38;83.19;101458.90;123453;1099;104320;-78
2022/12/28 01:22:02;;;;;;;13.67;4.67;;;;;;;2.39;83.60;101450.36;123403;1099;104347;-79
2022/12/28 01:24:33;;;;;;;15.23;4.70;;;;;;;2.41;83.34;101453.97;123479;1099;104350;-78
2022/12/28 01:27:05;;;;;;;19.07;5.77;;;;;;;2.42;84.10;101457.49;123449;1099;104504;-78
2022/12/28 01:29:36;;;;;;;13.67;4.37;;;;;;;2.44;82.98;101454.23;123371;1099;104306;-78
2022/12/28 01:32:08;;;;;;;17.67;4.87;;;;;;;2.45;83.17;101456.05;123480;1099;104313;-78
2022/12/28 01:34:39;;;;;;;13.53;4.30;;;;;;;2.46;83.63;101460.47;123416;1099;108905;-79
2022/12/28 01:37:10;;;;;;;20.10;5.00;;;;;;;2.46;83.23;101468.23;123145;1100;104325;-78
2022/12/28 01:39:41;;;;;;;13.95;4.65;;;;;;;2.47;83.32;101471.73;123380;1099;104664;-78
2022/12/28 01:42:17;;;;;;;18.87;4.77;;;;;;;2.46;82.70;101460.47;123412;1099;104393;-78
2022/12/28 01:44:51;;;;;;;12.57;4.30;;;;;;;2.43;83.32;101462.80;123778;1099;104274;-78
2022/12/28 01:47:25;;;;;;;13.75;3.90;;;;;;;2.40;82.96;101462.55;123518;1099;104232;-78
2022/12/28 01:50:02;;;;;;;17.90;4.47;;;;;;;2.37;82.61;101462.29;123558;1099;104302;-78
2022/12/28 01:52:39;;;;;;;15.13;4.50;;;;;;;2.32;83.11;101453.20;123635;1099;104754;-78
2022/12/28 01:55:15;;;;;;;14.40;3.95;;;;;;;2.30;83.07;101457.36;123427;1099;108216;-79
2022/12/28 01:57:52;;;;;;;13.57;4.47;;;;;;;2.27;83.41;101454.51;123243;1099;104300;-78
2022/12/28 02:00:25;;;;;;;14.93;4.40;;;;;;;2.27;83.17;101454.51;123207;1099;104322;-77
2022/12/28 02:03:01;;;;;;;14.13;4.33;;;;;;;2.26;83.02;101453.61;123319;1099;104724;-79
2022/12/28 02:05:38;;;;;;;13.70;4.30;;;;;;;2.26;83.09;101455.27;123402;1099;119072;-78
2022/12/28 02:08:15;;;;;;;14.00;4.60;;;;;;;2.26;83.24;101465.63;123483;1099;104392;-78
2022/12/28 02:10:48;;;;;;;17.30;4.80;;;;;;;2.26;82.83;101463.05;123474;1098;104361;-78
2022/12/28 02:13:23;;;;;;;17.03;5.30;;;;;;;2.27;83.29;101470.05;123272;1099;104414;-79
2022/12/28 02:15:54;;;;;;;13.43;4.60;;;;;;;2.27;82.90;101472.64;123447;1099;104255;-79
2022/12/28 02:18:26;;;;;;;18.77;4.93;;;;;;;2.28;83.73;101471.88;123446;1099;104489;-79
2022/12/28 02:21:27;;;;;;;14.17;4.77;;;;;;;2.29;83.17;101463.30;123211;1099;104384;-79
2022/12/28 02:24:24;;;;;;;16.80;5.20;;;;;;;2.30;82.94;101470.30;123440;1099;104377;-78
2022/12/28 02:27:01;;;;;;;12.80;4.23;;;;;;;2.30;83.15;101460.84;123142;1099;104306;-79
2022/12/28 02:29:59;;;;;;;10.67;4.20;;;;;;;2.32;82.70;101448.02;123128;1099;104353;-78
2022/12/28 02:32:53;;;;;;;15.03;4.60;;;;;;;2.32;82.79;101451.54;123231;1099;104409;-79
2022/12/28 02:35:34;;;;;;;15.07;4.57;;;;;;;2.32;82.59;101450.61;123130;1099;104248;-78
2022/12/28 02:38:14;;;;;;;12.87;4.43;;;;;;;2.32;82.75;101453.20;123213;1099;104260;-79
2022/12/28 02:40:50;;;;;;;15.55;4.90;;;;;;;2.30;82.52;101453.07;123143;1099;104178;-79
2022/12/28 02:43:21;;;;;;;14.77;4.70;;;;;;;2.28;83.06;101461.52;123086;1100;104425;-79
2022/12/28 02:51:51;;;;;;;14.37;4.80;;;;;;;2.21;82.90;101480.78;123127;1099;104277;-79
2022/12/28 02:58:06;;;;;;;15.90;4.80;;;;;;;2.19;82.84;101484.05;123129;1102;104392;-78
2022/12/28 03:00:50;;;;;;;17.70;5.20;;;;;;;2.18;82.57;101495.16;123224;1099;104351;-79
2022/12/28 03:03:28;;;;;;;14.07;4.80;;;;;;;2.14;82.96;101492.31;123144;1099;104252;-79
2022/12/28 03:09:03;;;;;;;15.77;4.90;;;;;;;2.10;82.83;101498.03;123131;1102;104357;-79
2022/12/28 03:11:41;;;;;;;15.73;4.63;;;;;;;2.09;83.55;101500.48;123219;1099;104655;-79
2022/12/28 03:14:18;;;;;;;13.83;4.40;;;;;;;2.08;82.91;101499.55;123153;1099;104277;-78
2022/12/28 03:31:23;;;;;;;16.27;4.90;;;;;;;1.95;83.16;101523.48;123423;1099;104284;-78
2022/12/28 03:34:06;;;;;;;14.27;4.60;;;;;;;1.94;82.79;101524.25;123402;1099;104278;-78
2022/12/28 03:36:50;;;;;;;15.57;4.90;;;;;;;1.93;82.62;101512.11;123200;1099;104287;-78
2022/12/28 03:39:34;;;;;;;13.20;4.77;;;;;;;1.94;82.73;101525.95;123152;1099;104340;-78
2022/12/28 03:45:12;;;;;;;20.93;4.97;;;;;;;1.94;82.64;101525.95;123147;1099;104421;-79
2022/12/28 03:47:47;;;;;;;17.87;4.70;;;;;;;1.95;82.62;101531.26;123419;1099;104274;-79
2022/12/28 03:50:20;;;;;;;13.23;4.63;;;;;;;1.95;82.71;101527.77;123085;1100;104354;-78
2022/12/28 03:52:53;;;;;;;16.35;4.70;;;;;;;1.97;82.59;101533.98;123167;1099;104245;-78
2022/12/28 03:55:25;;;;;;;12.57;4.40;;;;;;;1.97;82.66;101528.80;123154;1099;104412;-80
2022/12/28 03:57:57;;;;;;;12.83;4.67;;;;;;;1.97;82.24;101533.98;123212;1102;104424;-78
2022/12/28 04:00:30;;;;;;;14.38;4.67;;;;;;;1.95;82.60;101535.54;123567;1099;104360;-78
2022/12/28 04:03:02;;;;;;;15.37;4.73;;;;;;;1.96;82.35;101539.92;123200;1099;104278;-78
2022/12/28 04:05:33;;;;;;;12.87;4.67;;;;;;;1.96;82.14;101539.92;123258;1099;104335;-78
2022/12/28 04:08:04;;;;;;;16.93;5.00;;;;;;;1.97;83.08;101546.92;123480;1099;105800;-78
2022/12/28 04:10:36;;;;;;;9.80;4.35;;;;;;;1.95;82.52;101548.48;123317;1099;104350;-78
2022/12/28 04:13:07;;;;;;;15.50;5.10;;;;;;;1.93;81.93;101550.00;123267;1099;104331;-78
2022/12/28 04:15:59;;;;;;;15.70;5.00;;;;;;;1.93;82.53;101547.42;123300;1099;104440;-78
2022/12/28 04:18:32;;;;;;;14.37;5.03;;;;;;;1.92;82.98;101543.94;123443;1099;104245;-78
2022/12/28 04:21:04;;;;;;;16.43;5.70;;;;;;;1.91;82.61;101556.74;123368;1099;104434;-78
2022/12/28 04:23:35;;;;;;;18.37;5.57;;;;;;;1.91;82.47;101556.74;123475;1099;104364;-78
2022/12/28 04:26:22;;;;;;;16.53;5.67;;;;;;;1.90;82.30;101557.50;123395;1099;104280;-79
2022/12/28 04:29:00;;;;;;;16.83;5.90;;;;;;;1.87;82.66;101558.16;123531;1099;104271;-78
2022/12/28 04:31:42;;;;;;;18.00;6.30;;;;;;;1.86;82.35;101564.10;123606;1099;104357;-77
2022/12/28 04:34:16;;;;;;;14.60;5.20;;;;;;;1.85;82.11;101563.97;123582;1099;104280;-78
2022/12/28 04:36:54;;;;;;;16.83;6.27;;;;;;;1.85;82.21;101567.45;123611;1099;104296;-77
2022/12/28 04:39:26;;;;;;;20.57;6.37;;;;;;;1.84;82.86;101575.09;123536;1099;104226;-77
2022/12/28 04:41:57;;;;;;;14.03;4.83;;;;;;;1.83;82.55;101568.11;123646;1099;104373;-77
2022/12/28 04:44:28;;;;;;;18.55;5.65;;;;;;;1.83;82.39;101568.11;123734;1099;104274;-76
2022/12/28 04:47:00;;;;;;;14.53;4.87;;;;;;;1.82;82.07;101569.77;123636;1099;104848;-77
2022/12/28 04:49:31;;;;;;;12.90;5.40;;;;;;;1.80;82.09;101574.81;123556;1099;104281;-77
2022/12/28 04:52:02;;;;;;;24.27;6.87;;;;;;;1.78;81.83;101583.23;123557;1099;104277;-77
2022/12/28 04:54:33;;;;;;;21.13;7.03;;;;;;;1.74;81.72;101583.73;123516;1099;104331;-77
2022/12/28 04:57:05;;;;;;;19.80;6.27;;;;;;;1.70;81.31;101586.80;123429;1099;104284;-79
2022/12/28 04:59:39;;;;;;;17.10;5.70;;;;;;;1.65;81.80;101593.27;123239;1099;104360;-77
2022/12/28 05:02:10;;;;;;;15.70;5.93;;;;;;;1.60;81.41;101585.09;123432;1099;104302;-78
2022/12/28 05:04:41;;;;;;;17.23;5.20;;;;;;;1.58;81.62;101592.72;123235;1099;104338;-77
2022/12/28 05:07:12;;;;;;;14.57;5.00;;;;;;;1.57;81.52;101588.34;123347;1099;104251;-76
2022/12/28 05:09:44;;;;;;;15.37;5.20;;;;;;;1.55;81.02;101592.44;123351;1099;104278;-77
2022/12/28 05:12:15;;;;;;;15.67;5.37;;;;;;;1.55;81.10;101583.78;123859;1099;104389;-77
2022/12/28 05:14:46;;;;;;;12.87;4.63;;;;;;;1.56;82.00;101590.78;123721;1099;104331;-78
2022/12/28 05:17:17;;;;;;;13.40;5.10;;;;;;;1.56;81.37;101595.96;123721;1099;104731;-77
2022/12/28 05:19:49;;;;;;;16.07;5.13;;;;;;;1.51;81.24;101592.03;123605;1099;104280;-77
2022/12/28 05:22:20;;;;;;;14.67;5.60;;;;;;;1.49;81.37;101591.00;123742;1098;104245;-78
2022/12/28 05:24:54;;;;;;;19.03;5.53;;;;;;;1.47;81.37;101593.45;123820;1099;104663;-78
2022/12/28 05:27:25;;;;;;;17.48;5.33;;;;;;;1.48;81.48;101591.75;123697;1099;104271;-78
2022/12/28 05:29:56;;;;;;;13.77;5.07;;;;;;;1.53;82.21;101599.17;123710;1099;104322;-76
2022/12/28 05:32:27;;;;;;;16.60;5.77;;;;;;;1.56;82.13;101598.55;123697;1099;104304;-78
2022/12/28 05:34:59;;;;;;;18.87;6.80;;;;;;;1.59;82.16;101596.20;123831;1099;104245;-78
2022/12/28 05:37:30;;;;;;;20.27;6.23;;;;;;;1.59;81.85;101599.72;123768;1099;104332;-77
2022/12/28 05:40:01;;;;;;;19.57;5.80;;;;;;;1.60;82.06;101610.96;123777;1099;104286;-77
2022/12/28 05:42:34;;;;;;;18.03;7.10;;;;;;;1.62;82.21;101606.82;124143;1099;104383;-77
2022/12/28 05:45:07;;;;;;;16.53;6.43;;;;;;;1.68;81.97;101617.72;124080;1098;104223;-78
2022/12/28 05:47:39;;;;;;;22.13;7.90;;;;;;;1.68;81.64;101617.72;124385;1099;104245;-78
2022/12/28 05:50:10;;;;;;;24.80;9.07;;;;;;;1.60;81.30;101616.14;123949;1099;104421;-77
2022/12/28 05:52:42;;;;;;;31.77;12.30;;;;;;;1.55;81.48;101622.59;124073;1098;104246;-77
2022/12/28 05:55:13;;;;;;;24.10;9.77;;;;;;;1.48;81.58;101618.55;123972;1100;102283;-76
2022/12/28 05:57:44;;;;;;;21.57;8.73;;;;;;;1.41;81.81;101624.83;124128;1098;104300;-78
2022/12/28 06:00:17;;;;;;;24.00;10.03;;;;;;;1.40;81.06;101628.20;124024;1099;104379;-76
2022/12/28 06:02:48;;;;;;;24.90;8.83;;;;;;;1.35;81.30;101631.14;124300;1099;104364;-78
2022/12/28 06:05:19;;;;;;;20.27;7.40;;;;;;;1.29;81.24;101633.16;124121;1099;104246;-77
2022/12/28 06:07:53;;;;;;;17.93;6.97;;;;;;;1.25;80.84;101644.91;124131;1099;104597;-76
2022/12/28 06:10:24;;;;;;;19.00;7.20;;;;;;;1.22;81.33;101645.53;124056;1099;104347;-78
2022/12/28 06:12:55;;;;;;;18.90;7.20;;;;;;;1.22;81.37;101648.12;124089;1098;104176;-78
2022/12/28 06:15:27;;;;;;;20.47;7.60;;;;;;;1.27;81.89;101643.37;124557;1099;104426;-77
2022/12/28 06:17:58;;;;;;;23.43;7.87;;;;;;;1.36;81.91;101640.72;124329;1099;104319;-76
2022/12/28 06:20:29;;;;;;;26.23;8.70;;;;;;;1.41;81.16;101645.52;124241;1098;104188;-75
2022/12/28 06:23:01;;;;;;;25.20;8.60;;;;;;;1.47;81.95;101646.87;124499;1099;104248;-77
2022/12/28 06:25:33;;;;;;;20.43;7.73;;;;;;;1.55;81.62;101649.36;124496;1099;103417;-77
2022/12/28 06:28:04;;;;;;;18.70;7.73;;;;;;;1.65;81.91;101653.67;124686;1099;101979;-76
2022/12/28 06:30:36;;;;;;;20.83;6.97;;;;;;;1.72;81.78;101661.23;124649;1099;104242;-78
2022/12/28 06:33:07;;;;;;;18.23;6.37;;;;;;;1.70;79.93;101672.20;124703;1099;104169;-78
2022/12/28 06:35:45;;;;;;;20.80;6.80;;;;;;;1.67;79.63;101675.44;124654;1099;104660;-78
2022/12/28 06:38:16;;;;;;;15.75;6.15;;;;;;;1.67;80.40;101670.27;124806;1099;104217;-76
2022/12/28 06:40:49;;;;;;;;;;;;;;;1.67;79.54;101675.44;124913;1099;104230;-76
2022/12/28 06:43:20;;;;;;;17.87;6.63;;;;;;;1.70;80.33;101673.13;125293;1099;102634;-76
2022/12/28 06:45:58;;;;;;;21.70;6.37;;;;;;;1.76;80.28;101678.86;125114;1099;104181;-76
2022/12/28 06:48:31;;;;;;;21.43;5.80;;;;;;;1.84;81.09;101681.20;124533;1099;104361;-75
2022/12/28 06:51:05;;;;;;;19.50;6.43;;;;;;;1.92;80.71;101677.64;125113;1099;104221;-78
2022/12/28 06:53:37;;;;;;;17.75;6.50;;;;;;;1.93;80.07;101675.19;125143;1099;104197;-77
2022/12/28 06:56:12;;;;;;;15.23;6.33;;;;;;;1.98;80.83;101676.50;124981;1099;104204;-76
2022/12/28 06:58:45;;;;;;;17.40;6.73;;;;;;;2.05;80.92;101684.81;126102;1099;104163;-77
2022/12/28 07:01:18;;;;;;;16.13;6.30;;;;;;;2.10;81.06;101683.53;125415;1099;104171;-79
2022/12/28 07:03:51;;;;;;;19.63;6.37;;;;;;;2.14;79.42;101685.63;125313;1099;104245;-77
2022/12/28 07:06:26;;;;;;;19.90;7.40;;;;;;;2.17;79.90;101696.25;126726;1096;102461;-78
2022/12/28 07:09:02;;;;;;;21.30;7.50;;;;;;;2.20;79.52;101696.53;126629;1099;102332;-77
2022/12/28 07:11:34;;;;;;;24.87;8.10;;;;;;;2.20;79.07;101693.01;126509;1098;101878;-77
2022/12/28 07:14:06;;;;;;;25.50;10.10;;;;;;;2.18;79.47;101703.23;126483;1099;102050;-77
2022/12/28 07:16:38;;;;;;;27.87;8.93;;;;;;;2.19;78.57;101702.47;126208;1099;102112;-77
2022/12/28 07:19:09;;;;;;;20.80;7.77;;;;;;;2.22;79.71;101697.56;126234;1099;102571;-77
2022/12/28 07:21:41;;;;;;;21.93;7.93;;;;;;;2.25;79.08;101697.83;126157;1099;102959;-78
2022/12/28 07:24:12;;;;;;;20.40;8.33;;;;;;;2.29;78.37;101704.18;126286;1099;102208;-78
2022/12/28 07:26:44;;;;;;;19.97;7.20;;;;;;;2.34;78.77;101708.11;126261;1099;102644;-76
2022/12/28 07:29:17;;;;;;;26.13;8.27;;;;;;;2.41;78.73;101709.55;126577;1096;101351;-76
2022/12/28 07:31:51;;;;;;;21.87;7.37;;;;;;;2.48;77.99;101715.40;126621;1098;104010;-75
2022/12/28 07:34:22;;;;;;;19.10;7.25;;;;;;;2.56;77.46;101710.89;126614;1098;102595;-76
2022/12/28 07:36:53;;;;;;;20.30;6.93;;;;;;;2.64;78.14;101707.27;126729;1098;102466;-77
2022/12/28 07:39:25;;;;;;;16.73;7.27;;;;;;;2.75;77.56;101705.61;126581;1098;102554;-75
2022/12/28 07:41:56;;;;;;;20.33;7.73;;;;;;;2.85;77.55;101710.82;126492;1098;101763;-77
2022/12/28 07:44:33;;;;;;;21.77;8.07;;;;;;;2.93;78.20;101720.92;126033;1099;102771;-76
2022/12/28 07:47:07;;;;;;;22.43;7.50;;;;;;;3.00;77.65;101710.31;126371;1099;101888;-77
2022/12/28 07:49:41;;;;;;;21.80;6.93;;;;;;;3.09;78.09;101710.20;125989;1099;102331;-77
2022/12/28 07:52:14;;;;;;;22.87;7.77;;;;;;;3.15;78.01;101710.72;126011;1099;102072;-78
2022/12/28 07:54:45;;;;;;;19.57;8.03;;;;;;;3.19;77.82;101710.18;126471;1098;102761;-77
2022/12/28 07:57:19;;;;;;;20.07;7.80;;;;;;;3.22;77.26;101711.34;126373;1098;102626;-78
2022/12/28 07:59:51;;;;;;;20.07;8.50;;;;;;;3.27;77.87;101716.02;126396;1099;102879;-76
2022/12/28 08:02:22;;;;;;;21.90;8.57;;;;;;;3.32;77.28;101707.86;126003;1099;102374;-75
2022/12/28 08:04:54;;;;;;;20.30;8.20;;;;;;;3.39;77.48;101714.45;126700;1099;102119;-76
2022/12/28 08:07:26;;;;;;;25.73;8.93;;;;;;;3.47;76.92;101716.00;126671;1099;103209;-76
2022/12/28 08:09:57;;;;;;;19.43;8.00;;;;;;;3.57;77.93;101722.89;126775;1099;102577;-75
2022/12/28 08:12:29;;;;;;;23.40;7.97;;;;;;;3.66;77.47;101717.53;126636;1099;101679;-75
2022/12/28 08:15:01;;;;;;;22.73;7.77;;;;;;;3.73;77.10;101715.58;126478;1098;102628;-75
2022/12/28 08:17:32;;;;;;;20.67;7.27;;;;;;;3.84;76.57;101715.56;126444;1098;101885;-75
2022/12/28 08:20:07;;;;;;;21.60;7.90;;;;;;;3.92;75.78;101719.69;126610;1099;102097;-76
2022/12/28 08:22:39;;;;;;;23.63;8.00;;;;;;;4.04;76.13;101723.28;126505;1099;103420;-75
2022/12/28 08:25:11;;;;;;;19.30;6.50;;;;;;;4.13;76.42;101717.95;125999;1099;102534;-77
2022/12/28 08:27:43;;;;;;;17.23;6.77;;;;;;;4.23;76.05;101724.78;126424;1099;102471;-75
2022/12/28 08:30:24;;;;;;;19.50;6.60;;;;;;;4.33;77.04;101719.52;126466;1099;102630;-74
2022/12/28 08:32:56;;;;;;;19.23;6.30;;;;;;;4.43;76.72;101721.19;125997;1099;102818;-75
2022/12/28 08:35:30;;;;;;;16.70;6.63;;;;;;;4.52;76.08;101724.52;126762;1098;102540;-77
2022/12/28 08:38:04;;;;;;;22.93;8.37;;;;;;;4.58;75.23;101725.02;126773;1098;101605;-77
2022/12/28 08:40:37;;;;;;;;;;;;;;;4.65;74.62;101718.59;126666;1099;102359;-75
2022/12/28 08:43:10;;;;;;;22.27;7.97;;;;;;;4.70;75.04;101708.55;126390;1099;101997;-77
2022/12/28 08:45:42;;;;;;;17.40;6.43;;;;;;;4.70;72.97;101721.56;126611;1099;102111;-75
2022/12/28 08:48:13;;;;;;;14.63;6.03;;;;;;;4.71;74.27;101702.58;126510;1098;102106;-76
2022/12/28 08:50:45;;;;;;;16.37;5.60;;;;;;;4.73;73.64;101707.09;126653;1099;102666;-76
2022/12/28 08:53:20;;;;;;;14.20;5.57;;;;;;;4.78;73.38;101699.66;126593;1098;102666;-76
2022/12/28 08:55:52;;;;;;;15.23;6.37;;;;;;;4.87;74.88;101700.38;126433;1098;101442;-75
2022/12/28 08:58:26;;;;;;;14.50;6.00;;;;;;;4.93;74.46;101700.85;126697;1098;102709;-76
2022/12/28 09:01:06;;;;;;;15.30;5.93;;;;;;;5.00;74.56;101703.15;126702;1098;102651;-76
2022/12/28 09:03:39;;;;;;;14.60;5.40;;;;;;;5.02;70.35;101709.37;126558;1098;101477;-76
2022/12/28 09:06:13;;;;;;;15.80;5.60;;;;;;;5.05;73.17;101711.31;126666;1098;101490;-75
2022/12/28 09:08:43;;;;;;;;;;;;;;;5.04;71.28;101702.58;126429;1099;102158;-74
2022/12/28 09:11:15;;;;;;;14.70;5.43;;;;;;;5.10;74.08;101694.34;126437;1098;101396;-75
2022/12/28 09:13:46;;;;;;;16.73;5.50;;;;;;;5.19;74.09;101694.16;126610;1099;101939;-75
2022/12/28 09:16:20;;;;;;;15.27;5.17;;;;;;;5.25;72.19;101698.91;126710;1098;102532;-75
2022/12/28 09:18:56;;;;;;;17.27;5.53;;;;;;;5.24;71.87;101704.92;126538;1099;102054;-74
2022/12/28 09:21:30;;;;;;;16.23;5.33;;;;;;;5.26;72.52;101700.73;126724;1098;102832;-76
2022/12/28 09:24:06;;;;;;;15.30;5.30;;;;;;;5.28;71.79;101693.94;126686;1098;101885;-78
2022/12/28 09:26:40;;;;;;;13.67;5.20;;;;;;;5.28;71.09;101674.01;126913;1098;101955;-76
2022/12/28 09:29:13;;;;;;;16.53;6.10;;;;;;;5.33;72.84;101672.69;126808;1099;102769;-78
2022/12/28 09:31:48;;;;;;;13.50;5.83;;;;;;;5.40;72.58;101674.05;126787;1099;101812;-77
2022/12/28 09:34:20;;;;;;;15.70;5.60;;;;;;;5.47;71.64;101676.33;126619;1098;102819;-77
2022/12/28 09:36:52;;;;;;;15.97;5.80;;;;;;;5.51;72.38;101674.84;126819;1098;101377;-76
2022/12/28 09:39:24;;;;;;;16.97;5.23;;;;;;;5.47;70.74;101683.21;126586;1098;102790;-77
2022/12/28 09:42:02;;;;;;;15.17;5.30;;;;;;;5.53;72.78;101691.48;126442;1098;103140;-76
2022/12/28 09:44:54;;;;;;;11.20;5.03;;;;;;;5.53;69.48;101688.88;126560;1099;102420;-78
2022/12/28 09:47:32;;;;;;;17.80;5.63;;;;;;;5.56;71.02;101702.13;126683;1099;102779;-77
2022/12/28 09:50:28;;;;;;;13.60;5.33;;;;;;;5.53;71.59;101697.62;126806;1098;101966;-75
2022/12/28 09:53:18;;;;;;;19.10;6.10;;;;;;;5.57;71.79;101690.93;126121;1099;102143;-75
2022/12/28 09:55:58;;;;;;;18.00;5.90;;;;;;;5.65;72.06;101696.72;126389;1098;101478;-75
2022/12/28 09:58:39;;;;;;;15.17;5.00;;;;;;;5.67;70.82;101693.45;126799;1098;101409;-76
2022/12/28 10:01:14;;;;;;;12.30;4.70;;;;;;;5.66;69.95;101683.80;126548;1099;101872;-76
2022/12/28 10:03:47;;;;;;;15.80;5.70;;;;;;;5.66;71.38;101668.19;126558;1098;101732;-76
2022/12/28 10:06:25;;;;;;;15.07;5.17;;;;;;;5.71;70.76;101672.02;126836;1098;120094;-78
2022/12/28 10:08:59;;;;;;;14.83;5.40;;;;;;;5.78;71.19;101688.11;126067;1099;101979;-76
2022/12/28 10:11:33;;;;;;;13.05;5.62;;;;;;;5.81;71.66;101691.83;126119;1099;102079;-76
2022/12/28 10:14:18;;;;;;;12.50;5.17;;;;;;;5.84;71.73;101688.56;126158;1099;102701;-76
2022/12/28 10:16:49;;;;;;;17.75;6.03;;;;;;;5.89;70.01;101681.98;126439;1099;103501;-75
2022/12/28 10:19:23;;;;;;;17.73;6.17;;;;;;;5.95;71.21;101677.22;126031;1099;102335;-77
2022/12/28 10:22:02;;;;;;;16.65;6.12;;;;;;;5.91;68.33;101686.52;126530;1098;102294;-76
2022/12/28 10:24:37;;;;;;;12.23;4.97;;;;;;;5.90;66.44;101675.98;126368;1098;101426;-78
2022/12/28 10:27:13;;;;;;;16.37;6.03;;;;;;;5.94;69.49;101670.22;126027;1099;110097;-76
2022/12/28 10:29:46;;;;;;;14.07;5.23;;;;;;;5.96;68.51;101678.14;126512;1099;101877;-75
2022/12/28 10:32:22;;;;;;;11.23;5.03;;;;;;;5.99;68.95;101671.48;126420;1099;102918;-75
2022/12/28 10:35:00;;;;;;;18.30;5.30;;;;;;;6.06;69.40;101680.64;126010;1099;102814;-77
2022/12/28 10:37:36;;;;;;;14.87;5.30;;;;;;;6.07;67.27;101674.65;126347;1099;102920;-75
2022/12/28 10:40:18;;;;;;;13.37;4.97;;;;;;;6.06;67.26;101675.43;126333;1099;102128;-75
2022/12/28 10:42:54;;;;;;;14.53;4.47;;;;;;;6.03;68.31;101672.60;126508;1098;102121;-76
2022/12/28 10:45:33;;;;;;;14.97;4.73;;;;;;;6.05;67.96;101669.33;126319;1099;102811;-76
2022/12/28 10:48:14;;;;;;;11.60;4.50;;;;;;;6.11;68.31;101674.98;125960;1099;109201;-77
2022/12/28 10:50:50;;;;;;;14.33;4.73;;;;;;;6.12;68.68;101670.66;126471;1099;101458;-79
2022/12/28 10:53:29;;;;;;;12.03;4.60;;;;;;;6.14;69.52;101660.35;126034;1099;102626;-78
2022/12/28 10:56:22;;;;;;;12.37;4.63;;;;;;;6.18;67.64;101672.82;126496;1099;102318;-76
2022/12/28 10:59:16;;;;;;;10.13;4.33;;;;;;;6.15;66.25;101662.17;126481;1099;102017;-75
2022/12/28 11:01:48;;;;;;;15.10;4.47;;;;;;;6.12;67.58;101665.45;126339;1099;102404;-76
2022/12/28 11:04:21;;;;;;;9.03;4.13;;;;;;;6.17;67.29;101668.39;126470;1098;102691;-75
2022/12/28 11:06:57;;;;;;;12.00;4.30;;;;;;;6.16;66.85;101662.28;126197;1099;102459;-75
2022/12/28 11:09:30;;;;;;;12.47;4.53;;;;;;;6.09;66.69;101671.38;126208;1098;102740;-75
2022/12/28 11:12:21;;;;;;;12.87;4.20;;;;;;;6.03;65.67;101670.92;125958;1099;102161;-75
2022/12/28 11:14:55;;;;;;;9.73;3.90;;;;;;;6.00;65.71;101674.98;125951;1099;102396;-75
2022/12/28 11:17:33;;;;;;;11.05;4.20;;;;;;;5.99;66.81;101673.20;126229;1099;101719;-76
2022/12/28 11:20:43;;;;;;;9.40;4.20;;;;;;;5.96;65.55;101673.83;125092;1098;104201;-75
2022/12/28 11:23:23;;;;;;;14.37;4.43;;;;;;;5.94;66.59;101665.91;125246;1099;104245;-77
2022/12/28 11:25:55;;;;;;;14.13;4.37;;;;;;;5.93;66.54;101668.39;125467;1099;102711;-76
2022/12/28 11:28:31;;;;;;;16.13;4.83;;;;;;;5.90;66.03;101665.56;125534;1099;104237;-75
2022/12/28 11:31:04;;;;;;;13.67;4.00;;;;;;;5.84;63.70;101670.33;124997;1099;104178;-77
2022/12/28 11:33:43;;;;;;;14.97;4.87;;;;;;;5.85;65.84;101666.94;125468;1099;104255;-76
2022/12/28 11:36:24;;;;;;;11.73;3.87;;;;;;;5.86;63.52;101655.70;125534;1099;102534;-77
2022/12/28 11:38:58;;;;;;;12.55;3.80;;;;;;;5.94;64.58;101654.59;124701;1102;119002;-77
2022/12/28 11:41:49;;;;;;;9.10;3.87;;;;;;;6.01;64.91;101654.25;124788;1099;102830;-76
2022/12/28 11:44:54;;;;;;;8.47;3.87;;;;;;;6.07;65.13;101641.66;124754;1102;102331;-76
2022/12/28 11:47:33;;;;;;;9.30;3.93;;;;;;;6.11;64.27;101641.11;124999;1099;104254;-76
2022/12/28 11:50:40;;;;;;;8.37;3.80;;;;;;;6.18;65.81;101651.97;125068;1099;104174;-77
2022/12/28 11:53:45;;;;;;;7.33;3.33;;;;;;;6.18;61.03;101665.00;124840;1102;105003;-76
2022/12/28 11:56:21;;;;;;;10.17;3.40;;;;;;;6.23;61.79;101668.83;124903;1099;104281;-77
2022/12/28 11:59:25;;;;;;;10.83;3.00;;;;;;;6.24;62.12;101652.41;124960;1099;104172;-77
2022/12/28 12:02:01;;;;;;;7.30;3.42;;;;;;;6.35;63.38;101651.47;124854;1099;104178;-77
2022/12/28 12:04:38;;;;;;;9.77;3.23;;;;;;;6.44;62.25;101641.69;124883;1099;102892;-77
2022/12/28 12:07:22;;;;;;;8.60;3.10;;;;;;;6.52;61.13;101636.13;124887;1099;103723;-77
2022/12/28 12:10:30;;;;;;;7.47;3.20;;;;;;;6.62;61.46;101641.16;124764;1099;107126;-78
2022/12/28 12:13:25;;;;;;;9.97;3.40;;;;;;;6.72;62.00;101645.34;124961;1099;102201;-78
2022/12/28 12:16:02;;;;;;;9.37;3.43;;;;;;;6.74;59.23;101647.23;124862;1099;104307;-78